sensor_id;sensor_type;location;lat;lon;timestamp;P1;durP1;ratioP1;P2;durP2;ratioP2
2656;SDS011;1338;48.176;11.792;2023-02-18T00:00:35;4.40;;;3.60;;
2656;SDS011;1338;48.176;11.792;2023-02-18T00:03:03;4.63;;;4.23;;
2656;SDS011;1338;48.176;11.792;2023-02-18T00:05:31;4.30;;;3.90;;
2656;SDS011;1338;48.176;11.792;2023-02-18T00:08:00;4.03;;;3.73;;
2656;SDS011;1338;48.176;11.792;2023-02-18T00:10:28;4.67;;;4.27;;
2656;SDS011;1338;48.176;11.792;2023-02-18T00:12:58;4.53;;;4.13;;
2656;SDS011;1338;48.176;11.792;2023-02-18T00:15:26;5.30;;;3.60;;
2656;SDS011;1338;48.176;11.792;2023-02-18T00:17:55;4.07;;;3.73;;
2656;SDS011;1338;48.176;11.792;2023-02-18T00:20:23;4.50;;;3.93;;
2656;SDS011;1338;48.176;11.792;2023-02-18T00:22:51;4.40;;;4.00;;
2656;SDS011;1338;48.176;11.792;2023-02-18T00:25:19;4.73;;;4.37;;
2656;SDS011;1338;48.176;11.792;2023-02-18T00:27:47;4.23;;;3.83;;
2656;SDS011;1338;48.176;11.792;2023-02-18T00:30:17;4.80;;;4.40;;
2656;SDS011;1338;48.176;11.792;2023-02-18T00:32:45;3.80;;;3.50;;
2656;SDS011;1338;48.176;11.792;2023-02-18T00:35:14;3.90;;;3.60;;
2656;SDS011;1338;48.176;11.792;2023-02-18T00:37:42;4.80;;;4.40;;
2656;SDS011;1338;48.176;11.792;2023-02-18T00:40:11;4.40;;;3.33;;
2656;SDS011;1338;48.176;11.792;2023-02-18T00:42:39;4.00;;;3.70;;
2656;SDS011;1338;48.176;11.792;2023-02-18T00:45:08;4.17;;;3.63;;
2656;SDS011;1338;48.176;11.792;2023-02-18T00:47:37;4.63;;;3.63;;
2656;SDS011;1338;48.176;11.792;2023-02-18T00:50:06;3.77;;;3.47;;
2656;SDS011;1338;48.176;11.792;2023-02-18T00:52:35;3.60;;;3.20;;
2656;SDS011;1338;48.176;11.792;2023-02-18T00:55:03;4.40;;;3.73;;
2656;SDS011;1338;48.176;11.792;2023-02-18T00:57:32;3.60;;;3.30;;
2656;SDS011;1338;48.176;11.792;2023-02-18T01:00:00;4.10;;;3.80;;
2656;SDS011;1338;48.176;11.792;2023-02-18T01:02:30;3.53;;;3.23;;
2656;SDS011;1338;48.176;11.792;2023-02-18T01:05:00;4.07;;;3.57;;
2656;SDS011;1338;48.176;11.792;2023-02-18T01:07:28;3.80;;;3.50;;
2656;SDS011;1338;48.176;11.792;2023-02-18T01:09:57;4.03;;;3.60;;
2656;SDS011;1338;48.176;11.792;2023-02-18T01:12:26;3.80;;;3.50;;
2656;SDS011;1338;48.176;11.792;2023-02-18T01:14:54;3.50;;;3.20;;
2656;SDS011;1338;48.176;11.792;2023-02-18T01:17:22;3.60;;;3.30;;
2656;SDS011;1338;48.176;11.792;2023-02-18T01:19:51;4.00;;;3.60;;
2656;SDS011;1338;48.176;11.792;2023-02-18T01:22:20;3.73;;;3.43;;
2656;SDS011;1338;48.176;11.792;2023-02-18T01:24:49;5.17;;;3.70;;
2656;SDS011;1338;48.176;11.792;2023-02-18T01:27:17;4.00;;;3.70;;
2656;SDS011;1338;48.176;11.792;2023-02-18T01:29:45;3.50;;;3.20;;
2656;SDS011;1338;48.176;11.792;2023-02-18T01:32:13;3.37;;;3.07;;
2656;SDS011;1338;48.176;11.792;2023-02-18T01:34:42;3.93;;;3.63;;
2656;SDS011;1338;48.176;11.792;2023-02-18T01:37:10;3.40;;;3.20;;
2656;SDS011;1338;48.176;11.792;2023-02-18T01:39:40;5.00;;;3.70;;
2656;SDS011;1338;48.176;11.792;2023-02-18T01:42:13;3.90;;;3.60;;
2656;SDS011;1338;48.176;11.792;2023-02-18T01:44:46;3.50;;;3.20;;
2656;SDS011;1338;48.176;11.792;2023-02-18T01:47:15;3.57;;;3.30;;
2656;SDS011;1338;48.176;11.792;2023-02-18T01:49:45;5.77;;;3.30;;
2656;SDS011;1338;48.176;11.792;2023-02-18T01:52:18;3.93;;;3.30;;
2656;SDS011;1338;48.176;11.792;2023-02-18T01:54:52;4.10;;;3.43;;
2656;SDS011;1338;48.176;11.792;2023-02-18T01:57:28;3.67;;;3.33;;
2656;SDS011;1338;48.176;11.792;2023-02-18T02:00:00;7.23;;;3.70;;
2656;SDS011;1338;48.176;11.792;2023-02-18T02:02:41;5.33;;;3.70;;
2656;SDS011;1338;48.176;11.792;2023-02-18T02:05:13;3.43;;;3.13;;
2656;SDS011;1338;48.176;11.792;2023-02-18T02:07:43;4.13;;;3.73;;
2656;SDS011;1338;48.176;11.792;2023-02-18T02:10:15;4.50;;;4.10;;
2656;SDS011;1338;48.176;11.792;2023-02-18T02:12:47;5.47;;;4.70;;
2656;SDS011;1338;48.176;11.792;2023-02-18T02:15:29;6.07;;;4.37;;
2656;SDS011;1338;48.176;11.792;2023-02-18T02:18:08;4.50;;;4.20;;
2656;SDS011;1338;48.176;11.792;2023-02-18T02:24:11;4.17;;;3.77;;
2656;SDS011;1338;48.176;11.792;2023-02-18T02:27:13;4.63;;;4.20;;
2656;SDS011;1338;48.176;11.792;2023-02-18T02:35:58;4.80;;;4.40;;
2656;SDS011;1338;48.176;11.792;2023-02-18T02:38:30;5.00;;;4.50;;
2656;SDS011;1338;48.176;11.792;2023-02-18T02:41:07;4.00;;;3.70;;
2656;SDS011;1338;48.176;11.792;2023-02-18T02:43:46;4.97;;;4.50;;
2656;SDS011;1338;48.176;11.792;2023-02-18T02:46:26;5.00;;;3.80;;
2656;SDS011;1338;48.176;11.792;2023-02-18T02:48:58;4.40;;;4.10;;
2656;SDS011;1338;48.176;11.792;2023-02-18T02:51:36;4.27;;;3.87;;
2656;SDS011;1338;48.176;11.792;2023-02-18T02:54:12;4.97;;;4.40;;
2656;SDS011;1338;48.176;11.792;2023-02-18T02:57:03;3.90;;;3.60;;
2656;SDS011;1338;48.176;11.792;2023-02-18T02:59:34;3.80;;;3.50;;
2656;SDS011;1338;48.176;11.792;2023-02-18T03:02:14;3.90;;;3.50;;
2656;SDS011;1338;48.176;11.792;2023-02-18T03:04:53;3.37;;;3.17;;
2656;SDS011;1338;48.176;11.792;2023-02-18T03:07:44;3.80;;;3.50;;
2656;SDS011;1338;48.176;11.792;2023-02-18T03:10:46;3.67;;;3.37;;
2656;SDS011;1338;48.176;11.792;2023-02-18T03:13:25;3.93;;;3.50;;
2656;SDS011;1338;48.176;11.792;2023-02-18T03:16:00;4.20;;;3.50;;
2656;SDS011;1338;48.176;11.792;2023-02-18T03:18:39;3.77;;;3.47;;
2656;SDS011;1338;48.176;11.792;2023-02-18T03:21:12;4.17;;;3.87;;
2656;SDS011;1338;48.176;11.792;2023-02-18T03:23:48;3.33;;;3.00;;
2656;SDS011;1338;48.176;11.792;2023-02-18T03:26:20;3.47;;;3.17;;
2656;SDS011;1338;48.176;11.792;2023-02-18T03:28:51;3.53;;;3.23;;
2656;SDS011;1338;48.176;11.792;2023-02-18T03:31:22;3.60;;;3.27;;
2656;SDS011;1338;48.176;11.792;2023-02-18T03:33:54;3.30;;;3.10;;
2656;SDS011;1338;48.176;11.792;2023-02-18T03:36:27;4.30;;;2.77;;
2656;SDS011;1338;48.176;11.792;2023-02-18T03:39:00;3.77;;;3.53;;
2656;SDS011;1338;48.176;11.792;2023-02-18T03:41:31;3.10;;;2.90;;
2656;SDS011;1338;48.176;11.792;2023-02-18T03:44:01;3.00;;;2.80;;
2656;SDS011;1338;48.176;11.792;2023-02-18T03:46:33;2.80;;;2.60;;
2656;SDS011;1338;48.176;11.792;2023-02-18T03:49:03;2.73;;;2.53;;
2656;SDS011;1338;48.176;11.792;2023-02-18T03:51:32;3.37;;;3.07;;
2656;SDS011;1338;48.176;11.792;2023-02-18T03:54:02;2.70;;;2.50;;
2656;SDS011;1338;48.176;11.792;2023-02-18T03:56:30;3.10;;;2.90;;
2656;SDS011;1338;48.176;11.792;2023-02-18T03:58:59;3.20;;;2.90;;
2656;SDS011;1338;48.176;11.792;2023-02-18T04:01:27;2.90;;;2.70;;
2656;SDS011;1338;48.176;11.792;2023-02-18T04:03:56;2.97;;;2.77;;
2656;SDS011;1338;48.176;11.792;2023-02-18T04:06:24;3.13;;;2.93;;
2656;SDS011;1338;48.176;11.792;2023-02-18T04:08:52;2.90;;;2.70;;
2656;SDS011;1338;48.176;11.792;2023-02-18T04:11:22;3.33;;;3.07;;
2656;SDS011;1338;48.176;11.792;2023-02-18T04:13:50;3.17;;;2.97;;
2656;SDS011;1338;48.176;11.792;2023-02-18T04:16:18;3.10;;;2.90;;
2656;SDS011;1338;48.176;11.792;2023-02-18T04:18:46;2.97;;;2.77;;
2656;SDS011;1338;48.176;11.792;2023-02-18T04:21:14;2.90;;;2.70;;
2656;SDS011;1338;48.176;11.792;2023-02-18T04:23:43;2.90;;;2.70;;
2656;SDS011;1338;48.176;11.792;2023-02-18T04:26:12;3.20;;;2.90;;
2656;SDS011;1338;48.176;11.792;2023-02-18T04:28:41;2.60;;;2.40;;
2656;SDS011;1338;48.176;11.792;2023-02-18T04:31:09;3.30;;;3.10;;
2656;SDS011;1338;48.176;11.792;2023-02-18T04:33:38;3.27;;;3.07;;
2656;SDS011;1338;48.176;11.792;2023-02-18T04:36:06;3.20;;;3.00;;
2656;SDS011;1338;48.176;11.792;2023-02-18T04:38:36;5.43;;;4.93;;
2656;SDS011;1338;48.176;11.792;2023-02-18T04:41:04;3.30;;;3.00;;
2656;SDS011;1338;48.176;11.792;2023-02-18T04:43:32;2.80;;;2.60;;
2656;SDS011;1338;48.176;11.792;2023-02-18T04:46:02;3.07;;;2.87;;
2656;SDS011;1338;48.176;11.792;2023-02-18T04:48:30;3.60;;;3.30;;
2656;SDS011;1338;48.176;11.792;2023-02-18T04:51:00;2.83;;;2.63;;
2656;SDS011;1338;48.176;11.792;2023-02-18T04:53:28;3.30;;;3.00;;
2656;SDS011;1338;48.176;11.792;2023-02-18T04:55:56;2.67;;;2.47;;
2656;SDS011;1338;48.176;11.792;2023-02-18T04:58:25;3.10;;;2.90;;
2656;SDS011;1338;48.176;11.792;2023-02-18T05:00:57;3.63;;;3.33;;
2656;SDS011;1338;48.176;11.792;2023-02-18T05:03:27;3.90;;;3.60;;
2656;SDS011;1338;48.176;11.792;2023-02-18T05:05:56;3.23;;;3.00;;
2656;SDS011;1338;48.176;11.792;2023-02-18T05:08:24;3.20;;;3.00;;
2656;SDS011;1338;48.176;11.792;2023-02-18T05:10:53;3.23;;;3.00;;
2656;SDS011;1338;48.176;11.792;2023-02-18T05:13:21;3.40;;;3.17;;
2656;SDS011;1338;48.176;11.792;2023-02-18T05:15:49;3.10;;;2.90;;
2656;SDS011;1338;48.176;11.792;2023-02-18T05:18:17;3.07;;;2.83;;
2656;SDS011;1338;48.176;11.792;2023-02-18T05:20:47;2.80;;;2.60;;
2656;SDS011;1338;48.176;11.792;2023-02-18T05:23:15;3.10;;;2.90;;
2656;SDS011;1338;48.176;11.792;2023-02-18T05:25:45;3.07;;;2.77;;
2656;SDS011;1338;48.176;11.792;2023-02-18T05:28:13;3.07;;;2.80;;
2656;SDS011;1338;48.176;11.792;2023-02-18T05:30:42;2.97;;;2.77;;
2656;SDS011;1338;48.176;11.792;2023-02-18T05:33:10;2.87;;;2.67;;
2656;SDS011;1338;48.176;11.792;2023-02-18T05:35:39;4.80;;;3.37;;
2656;SDS011;1338;48.176;11.792;2023-02-18T05:38:08;3.10;;;2.80;;
2656;SDS011;1338;48.176;11.792;2023-02-18T05:40:37;3.17;;;2.87;;
2656;SDS011;1338;48.176;11.792;2023-02-18T05:43:05;3.03;;;2.83;;
2656;SDS011;1338;48.176;11.792;2023-02-18T05:45:33;3.10;;;2.90;;
2656;SDS011;1338;48.176;11.792;2023-02-18T05:48:02;2.70;;;2.50;;
2656;SDS011;1338;48.176;11.792;2023-02-18T05:50:30;2.90;;;2.70;;
2656;SDS011;1338;48.176;11.792;2023-02-18T05:52:58;3.07;;;2.87;;
2656;SDS011;1338;48.176;11.792;2023-02-18T05:55:28;2.50;;;2.30;;
2656;SDS011;1338;48.176;11.792;2023-02-18T05:57:56;3.00;;;2.80;;
2656;SDS011;1338;48.176;11.792;2023-02-18T06:00:25;2.90;;;2.70;;
2656;SDS011;1338;48.176;11.792;2023-02-18T06:02:55;2.60;;;2.40;;
2656;SDS011;1338;48.176;11.792;2023-02-18T06:05:23;2.40;;;2.20;;
2656;SDS011;1338;48.176;11.792;2023-02-18T06:07:52;2.67;;;2.47;;
2656;SDS011;1338;48.176;11.792;2023-02-18T06:10:22;2.30;;;2.10;;
2656;SDS011;1338;48.176;11.792;2023-02-18T06:12:51;2.07;;;1.97;;
2656;SDS011;1338;48.176;11.792;2023-02-18T06:15:19;1.77;;;1.67;;
2656;SDS011;1338;48.176;11.792;2023-02-18T06:17:47;2.40;;;2.20;;
2656;SDS011;1338;48.176;11.792;2023-02-18T06:20:16;2.43;;;2.23;;
2656;SDS011;1338;48.176;11.792;2023-02-18T06:22:44;2.00;;;1.90;;
2656;SDS011;1338;48.176;11.792;2023-02-18T06:25:12;1.80;;;1.70;;
2656;SDS011;1338;48.176;11.792;2023-02-18T06:27:40;2.17;;;2.00;;
2656;SDS011;1338;48.176;11.792;2023-02-18T06:30:11;1.90;;;1.80;;
2656;SDS011;1338;48.176;11.792;2023-02-18T06:32:40;2.13;;;1.93;;
2656;SDS011;1338;48.176;11.792;2023-02-18T06:35:08;2.63;;;1.97;;
2656;SDS011;1338;48.176;11.792;2023-02-18T06:37:37;2.17;;;1.97;;
2656;SDS011;1338;48.176;11.792;2023-02-18T06:40:06;1.90;;;1.80;;
2656;SDS011;1338;48.176;11.792;2023-02-18T06:42:35;1.87;;;1.77;;
2656;SDS011;1338;48.176;11.792;2023-02-18T06:45:03;2.03;;;1.90;;
2656;SDS011;1338;48.176;11.792;2023-02-18T06:47:33;1.97;;;1.87;;
2656;SDS011;1338;48.176;11.792;2023-02-18T06:50:02;1.90;;;1.80;;
2656;SDS011;1338;48.176;11.792;2023-02-18T06:52:30;1.93;;;1.83;;
2656;SDS011;1338;48.176;11.792;2023-02-18T06:54:59;2.30;;;2.10;;
2656;SDS011;1338;48.176;11.792;2023-02-18T06:57:28;2.13;;;1.93;;
2656;SDS011;1338;48.176;11.792;2023-02-18T06:59:56;1.80;;;1.70;;
2656;SDS011;1338;48.176;11.792;2023-02-18T07:02:24;1.77;;;1.67;;
2656;SDS011;1338;48.176;11.792;2023-02-18T07:04:54;1.80;;;1.70;;
2656;SDS011;1338;48.176;11.792;2023-02-18T07:07:22;1.90;;;1.80;;
2656;SDS011;1338;48.176;11.792;2023-02-18T07:09:50;1.97;;;1.83;;
2656;SDS011;1338;48.176;11.792;2023-02-18T07:12:18;2.10;;;2.00;;
2656;SDS011;1338;48.176;11.792;2023-02-18T07:14:47;1.70;;;1.60;;
2656;SDS011;1338;48.176;11.792;2023-02-18T07:17:16;2.33;;;1.77;;
2656;SDS011;1338;48.176;11.792;2023-02-18T07:19:44;1.87;;;1.77;;
2656;SDS011;1338;48.176;11.792;2023-02-18T07:22:14;1.60;;;1.50;;
2656;SDS011;1338;48.176;11.792;2023-02-18T07:24:46;1.90;;;1.80;;
2656;SDS011;1338;48.176;11.792;2023-02-18T07:27:18;1.97;;;1.87;;
2656;SDS011;1338;48.176;11.792;2023-02-18T07:29:48;1.83;;;1.70;;
2656;SDS011;1338;48.176;11.792;2023-02-18T07:32:17;1.60;;;1.50;;
2656;SDS011;1338;48.176;11.792;2023-02-18T07:34:46;1.77;;;1.67;;
2656;SDS011;1338;48.176;11.792;2023-02-18T07:37:16;1.57;;;1.47;;
2656;SDS011;1338;48.176;11.792;2023-02-18T07:39:45;1.57;;;1.43;;
2656;SDS011;1338;48.176;11.792;2023-02-18T07:42:13;1.47;;;1.37;;
2656;SDS011;1338;48.176;11.792;2023-02-18T07:44:43;1.70;;;1.60;;
2656;SDS011;1338;48.176;11.792;2023-02-18T07:47:12;2.23;;;1.70;;
2656;SDS011;1338;48.176;11.792;2023-02-18T07:49:42;1.63;;;1.50;;
2656;SDS011;1338;48.176;11.792;2023-02-18T07:52:10;1.40;;;1.30;;
2656;SDS011;1338;48.176;11.792;2023-02-18T07:54:40;1.60;;;1.50;;
2656;SDS011;1338;48.176;11.792;2023-02-18T07:57:09;1.77;;;1.63;;
2656;SDS011;1338;48.176;11.792;2023-02-18T07:59:37;1.57;;;1.40;;
2656;SDS011;1338;48.176;11.792;2023-02-18T08:02:05;1.60;;;1.50;;
2656;SDS011;1338;48.176;11.792;2023-02-18T08:04:41;1.63;;;1.53;;
2656;SDS011;1338;48.176;11.792;2023-02-18T08:07:11;1.60;;;1.50;;
2656;SDS011;1338;48.176;11.792;2023-02-18T08:09:41;1.70;;;1.60;;
2656;SDS011;1338;48.176;11.792;2023-02-18T08:12:09;1.63;;;1.50;;
2656;SDS011;1338;48.176;11.792;2023-02-18T08:14:37;3.10;;;1.50;;
2656;SDS011;1338;48.176;11.792;2023-02-18T08:17:07;1.70;;;1.60;;
2656;SDS011;1338;48.176;11.792;2023-02-18T08:19:35;1.70;;;1.60;;
2656;SDS011;1338;48.176;11.792;2023-02-18T08:22:03;1.77;;;1.47;;
2656;SDS011;1338;48.176;11.792;2023-02-18T08:24:31;1.60;;;1.50;;
2656;SDS011;1338;48.176;11.792;2023-02-18T08:27:01;2.73;;;1.80;;
2656;SDS011;1338;48.176;11.792;2023-02-18T08:29:32;1.67;;;1.57;;
2656;SDS011;1338;48.176;11.792;2023-02-18T08:32:00;1.80;;;1.70;;
2656;SDS011;1338;48.176;11.792;2023-02-18T08:34:28;2.00;;;1.80;;
2656;SDS011;1338;48.176;11.792;2023-02-18T08:36:57;1.93;;;1.47;;
2656;SDS011;1338;48.176;11.792;2023-02-18T08:39:25;1.47;;;1.37;;
2656;SDS011;1338;48.176;11.792;2023-02-18T08:41:53;1.80;;;1.70;;
2656;SDS011;1338;48.176;11.792;2023-02-18T08:44:24;1.60;;;1.50;;
2656;SDS011;1338;48.176;11.792;2023-02-18T08:46:53;1.90;;;1.80;;
2656;SDS011;1338;48.176;11.792;2023-02-18T08:49:22;2.13;;;1.60;;
2656;SDS011;1338;48.176;11.792;2023-02-18T08:51:50;1.37;;;1.27;;
2656;SDS011;1338;48.176;11.792;2023-02-18T08:54:19;2.00;;;1.70;;
2656;SDS011;1338;48.176;11.792;2023-02-18T08:56:47;1.60;;;1.50;;
2656;SDS011;1338;48.176;11.792;2023-02-18T08:59:15;2.43;;;1.60;;
2656;SDS011;1338;48.176;11.792;2023-02-18T09:01:45;2.53;;;1.60;;
2656;SDS011;1338;48.176;11.792;2023-02-18T09:04:13;2.17;;;1.97;;
2656;SDS011;1338;48.176;11.792;2023-02-18T09:06:46;1.90;;;1.80;;
2656;SDS011;1338;48.176;11.792;2023-02-18T09:09:15;2.00;;;1.80;;
2656;SDS011;1338;48.176;11.792;2023-02-18T09:11:44;1.77;;;1.67;;
2656;SDS011;1338;48.176;11.792;2023-02-18T09:14:12;2.10;;;1.73;;
2656;SDS011;1338;48.176;11.792;2023-02-18T09:16:41;1.97;;;1.83;;
2656;SDS011;1338;48.176;11.792;2023-02-18T09:19:11;1.50;;;1.40;;
2656;SDS011;1338;48.176;11.792;2023-02-18T09:21:39;2.03;;;1.83;;
2656;SDS011;1338;48.176;11.792;2023-02-18T09:24:07;3.70;;;2.20;;
2656;SDS011;1338;48.176;11.792;2023-02-18T09:26:37;1.90;;;1.80;;
2656;SDS011;1338;48.176;11.792;2023-02-18T09:29:06;1.97;;;1.77;;
2656;SDS011;1338;48.176;11.792;2023-02-18T09:31:34;1.97;;;1.80;;
2656;SDS011;1338;48.176;11.792;2023-02-18T09:34:03;1.83;;;1.73;;
2656;SDS011;1338;48.176;11.792;2023-02-18T09:36:33;2.23;;;2.03;;
2656;SDS011;1338;48.176;11.792;2023-02-18T09:39:02;2.27;;;2.07;;
2656;SDS011;1338;48.176;11.792;2023-02-18T09:41:31;2.60;;;2.10;;
2656;SDS011;1338;48.176;11.792;2023-02-18T09:44:05;2.90;;;2.00;;
2656;SDS011;1338;48.176;11.792;2023-02-18T09:46:39;2.03;;;1.83;;
2656;SDS011;1338;48.176;11.792;2023-02-18T09:49:16;2.23;;;2.00;;
2656;SDS011;1338;48.176;11.792;2023-02-18T09:51:49;2.30;;;2.10;;
2656;SDS011;1338;48.176;11.792;2023-02-18T09:54:17;4.13;;;2.13;;
2656;SDS011;1338;48.176;11.792;2023-02-18T09:56:47;2.23;;;2.03;;
2656;SDS011;1338;48.176;11.792;2023-02-18T09:59:19;2.00;;;1.90;;
2656;SDS011;1338;48.176;11.792;2023-02-18T10:01:49;2.50;;;2.30;;
2656;SDS011;1338;48.176;11.792;2023-02-18T10:04:20;2.20;;;2.00;;
2656;SDS011;1338;48.176;11.792;2023-02-18T10:06:52;2.30;;;2.10;;
2656;SDS011;1338;48.176;11.792;2023-02-18T10:09:21;2.60;;;1.90;;
2656;SDS011;1338;48.176;11.792;2023-02-18T10:11:55;2.33;;;2.10;;
2656;SDS011;1338;48.176;11.792;2023-02-18T10:14:27;2.37;;;2.03;;
2656;SDS011;1338;48.176;11.792;2023-02-18T10:16:57;2.13;;;1.93;;
2656;SDS011;1338;48.176;11.792;2023-02-18T10:19:29;2.23;;;2.00;;
2656;SDS011;1338;48.176;11.792;2023-02-18T10:22:03;2.20;;;2.10;;
2656;SDS011;1338;48.176;11.792;2023-02-18T10:24:33;2.40;;;2.20;;
2656;SDS011;1338;48.176;11.792;2023-02-18T10:27:05;4.07;;;2.30;;
2656;SDS011;1338;48.176;11.792;2023-02-18T10:29:34;2.40;;;2.20;;
2656;SDS011;1338;48.176;11.792;2023-02-18T10:32:05;2.40;;;2.20;;
2656;SDS011;1338;48.176;11.792;2023-02-18T10:34:40;2.23;;;2.13;;
2656;SDS011;1338;48.176;11.792;2023-02-18T10:37:18;2.50;;;2.30;;
2656;SDS011;1338;48.176;11.792;2023-02-18T10:39:59;1.90;;;1.70;;
2656;SDS011;1338;48.176;11.792;2023-02-18T10:42:36;2.50;;;2.17;;
2656;SDS011;1338;48.176;11.792;2023-02-18T10:45:15;2.90;;;2.23;;
2656;SDS011;1338;48.176;11.792;2023-02-18T10:47:50;2.03;;;1.93;;
2656;SDS011;1338;48.176;11.792;2023-02-18T10:50:31;2.63;;;2.43;;
2656;SDS011;1338;48.176;11.792;2023-02-18T10:53:09;2.57;;;2.37;;
2656;SDS011;1338;48.176;11.792;2023-02-18T10:55:41;3.23;;;2.33;;
2656;SDS011;1338;48.176;11.792;2023-02-18T10:58:24;2.50;;;2.30;;
2656;SDS011;1338;48.176;11.792;2023-02-18T11:00:54;2.27;;;2.10;;
2656;SDS011;1338;48.176;11.792;2023-02-18T11:03:23;5.03;;;2.20;;
2656;SDS011;1338;48.176;11.792;2023-02-18T11:05:53;2.33;;;1.70;;
2656;SDS011;1338;48.176;11.792;2023-02-18T11:08:25;2.53;;;1.80;;
2656;SDS011;1338;48.176;11.792;2023-02-18T11:10:55;2.20;;;2.10;;
2656;SDS011;1338;48.176;11.792;2023-02-18T11:13:25;2.40;;;2.20;;
2656;SDS011;1338;48.176;11.792;2023-02-18T11:15:58;2.50;;;2.30;;
2656;SDS011;1338;48.176;11.792;2023-02-18T11:18:29;1.80;;;1.70;;
2656;SDS011;1338;48.176;11.792;2023-02-18T11:21:04;2.30;;;2.10;;
2656;SDS011;1338;48.176;11.792;2023-02-18T11:23:50;2.30;;;2.10;;
2656;SDS011;1338;48.176;11.792;2023-02-18T11:26:20;1.90;;;1.80;;
2656;SDS011;1338;48.176;11.792;2023-02-18T11:28:56;2.33;;;2.13;;
2656;SDS011;1338;48.176;11.792;2023-02-18T11:31:33;2.57;;;2.20;;
2656;SDS011;1338;48.176;11.792;2023-02-18T11:34:12;2.63;;;2.33;;
2656;SDS011;1338;48.176;11.792;2023-02-18T11:36:43;2.50;;;2.30;;
2656;SDS011;1338;48.176;11.792;2023-02-18T11:39:16;2.13;;;1.90;;
2656;SDS011;1338;48.176;11.792;2023-02-18T11:41:47;2.50;;;2.30;;
2656;SDS011;1338;48.176;11.792;2023-02-18T11:44:21;1.90;;;1.80;;
2656;SDS011;1338;48.176;11.792;2023-02-18T11:46:55;2.07;;;1.70;;
2656;SDS011;1338;48.176;11.792;2023-02-18T11:49:25;2.53;;;2.20;;
2656;SDS011;1338;48.176;11.792;2023-02-18T11:52:02;2.33;;;2.13;;
2656;SDS011;1338;48.176;11.792;2023-02-18T11:54:33;2.10;;;1.90;;
2656;SDS011;1338;48.176;11.792;2023-02-18T11:57:02;1.57;;;1.47;;
2656;SDS011;1338;48.176;11.792;2023-02-18T11:59:33;3.27;;;2.27;;
2656;SDS011;1338;48.176;11.792;2023-02-18T12:02:05;1.90;;;1.80;;
2656;SDS011;1338;48.176;11.792;2023-02-18T12:04:55;2.03;;;1.60;;
2656;SDS011;1338;48.176;11.792;2023-02-18T12:07:29;2.00;;;1.80;;
2656;SDS011;1338;48.176;11.792;2023-02-18T12:10:11;1.87;;;1.77;;
2656;SDS011;1338;48.176;11.792;2023-02-18T12:12:44;1.80;;;1.70;;
2656;SDS011;1338;48.176;11.792;2023-02-18T12:15:17;2.00;;;1.80;;
2656;SDS011;1338;48.176;11.792;2023-02-18T12:17:54;1.80;;;1.70;;
2656;SDS011;1338;48.176;11.792;2023-02-18T12:20:47;1.67;;;1.57;;
2656;SDS011;1338;48.176;11.792;2023-02-18T12:23:30;2.67;;;1.90;;
2656;SDS011;1338;48.176;11.792;2023-02-18T12:26:07;2.30;;;2.10;;
2656;SDS011;1338;48.176;11.792;2023-02-18T12:28:51;3.70;;;1.73;;
2656;SDS011;1338;48.176;11.792;2023-02-18T12:31:34;1.60;;;1.50;;
2656;SDS011;1338;48.176;11.792;2023-02-18T12:34:15;1.90;;;1.80;;
2656;SDS011;1338;48.176;11.792;2023-02-18T12:36:55;6.27;;;2.40;;
2656;SDS011;1338;48.176;11.792;2023-02-18T12:39:36;2.00;;;1.90;;
2656;SDS011;1338;48.176;11.792;2023-02-18T12:42:25;2.07;;;1.77;;
2656;SDS011;1338;48.176;11.792;2023-02-18T12:45:08;1.90;;;1.80;;
2656;SDS011;1338;48.176;11.792;2023-02-18T12:47:55;1.73;;;1.63;;
2656;SDS011;1338;48.176;11.792;2023-02-18T12:50:48;1.90;;;1.80;;
2656;SDS011;1338;48.176;11.792;2023-02-18T12:53:44;2.23;;;1.57;;
2656;SDS011;1338;48.176;11.792;2023-02-18T12:56:33;1.70;;;1.60;;
2656;SDS011;1338;48.176;11.792;2023-02-18T12:59:30;1.87;;;1.77;;
2656;SDS011;1338;48.176;11.792;2023-02-18T13:02:15;2.07;;;1.90;;
2656;SDS011;1338;48.176;11.792;2023-02-18T13:04:57;2.40;;;1.87;;
2656;SDS011;1338;48.176;11.792;2023-02-18T13:07:35;2.20;;;2.00;;
2656;SDS011;1338;48.176;11.792;2023-02-18T13:13:18;2.10;;;2.00;;
2656;SDS011;1338;48.176;11.792;2023-02-18T13:15:50;1.83;;;1.73;;
2656;SDS011;1338;48.176;11.792;2023-02-18T13:18:23;2.13;;;1.93;;
2656;SDS011;1338;48.176;11.792;2023-02-18T13:20:55;2.00;;;1.90;;
2656;SDS011;1338;48.176;11.792;2023-02-18T13:23:30;1.93;;;1.83;;
2656;SDS011;1338;48.176;11.792;2023-02-18T13:26:01;3.10;;;1.63;;
2656;SDS011;1338;48.176;11.792;2023-02-18T13:28:33;3.17;;;2.10;;
2656;SDS011;1338;48.176;11.792;2023-02-18T13:31:13;2.10;;;2.00;;
2656;SDS011;1338;48.176;11.792;2023-02-18T13:33:51;2.27;;;1.87;;
2656;SDS011;1338;48.176;11.792;2023-02-18T13:36:27;2.40;;;2.20;;
2656;SDS011;1338;48.176;11.792;2023-02-18T13:39:03;2.10;;;2.00;;
2656;SDS011;1338;48.176;11.792;2023-02-18T13:41:34;2.57;;;2.37;;
2656;SDS011;1338;48.176;11.792;2023-02-18T13:44:07;2.70;;;2.00;;
2656;SDS011;1338;48.176;11.792;2023-02-18T13:49:22;2.30;;;2.10;;
2656;SDS011;1338;48.176;11.792;2023-02-18T13:51:52;2.13;;;1.93;;
2656;SDS011;1338;48.176;11.792;2023-02-18T13:54:23;2.37;;;2.13;;
2656;SDS011;1338;48.176;11.792;2023-02-18T13:56:57;2.30;;;2.10;;
2656;SDS011;1338;48.176;11.792;2023-02-18T13:59:30;3.40;;;2.30;;
2656;SDS011;1338;48.176;11.792;2023-02-18T14:04:58;2.03;;;1.93;;
2656;SDS011;1338;48.176;11.792;2023-02-18T14:07:46;3.30;;;2.20;;
2656;SDS011;1338;48.176;11.792;2023-02-18T14:10:28;2.50;;;2.30;;
2656;SDS011;1338;48.176;11.792;2023-02-18T14:13:01;2.40;;;2.20;;
2656;SDS011;1338;48.176;11.792;2023-02-18T14:15:56;2.20;;;2.00;;
2656;SDS011;1338;48.176;11.792;2023-02-18T14:18:32;2.50;;;2.30;;
2656;SDS011;1338;48.176;11.792;2023-02-18T14:21:35;2.13;;;2.00;;
2656;SDS011;1338;48.176;11.792;2023-02-18T14:24:06;2.27;;;2.07;;
2656;SDS011;1338;48.176;11.792;2023-02-18T14:26:43;2.57;;;2.10;;
2656;SDS011;1338;48.176;11.792;2023-02-18T14:29:19;2.00;;;1.90;;
2656;SDS011;1338;48.176;11.792;2023-02-18T14:31:53;2.10;;;1.90;;
2656;SDS011;1338;48.176;11.792;2023-02-18T14:37:29;2.90;;;2.23;;
2656;SDS011;1338;48.176;11.792;2023-02-18T14:43:11;1.93;;;1.80;;
2656;SDS011;1338;48.176;11.792;2023-02-18T14:45:57;2.17;;;1.97;;
2656;SDS011;1338;48.176;11.792;2023-02-18T14:48:48;2.10;;;2.00;;
2656;SDS011;1338;48.176;11.792;2023-02-18T14:51:37;2.20;;;2.03;;
2656;SDS011;1338;48.176;11.792;2023-02-18T14:54:10;2.30;;;2.10;;
2656;SDS011;1338;48.176;11.792;2023-02-18T14:56:44;2.30;;;2.10;;
2656;SDS011;1338;48.176;11.792;2023-02-18T14:59:20;2.00;;;1.90;;
2656;SDS011;1338;48.176;11.792;2023-02-18T15:01:52;2.13;;;1.93;;
2656;SDS011;1338;48.176;11.792;2023-02-18T15:04:22;2.10;;;1.90;;
2656;SDS011;1338;48.176;11.792;2023-02-18T15:07:00;2.37;;;2.20;;
2656;SDS011;1338;48.176;11.792;2023-02-18T15:09:30;2.20;;;2.00;;
2656;SDS011;1338;48.176;11.792;2023-02-18T15:11:59;2.00;;;1.90;;
2656;SDS011;1338;48.176;11.792;2023-02-18T15:14:32;2.30;;;2.10;;
2656;SDS011;1338;48.176;11.792;2023-02-18T15:17:02;2.00;;;1.80;;
2656;SDS011;1338;48.176;11.792;2023-02-18T15:19:34;2.00;;;1.90;;
2656;SDS011;1338;48.176;11.792;2023-02-18T15:22:12;2.30;;;2.10;;
2656;SDS011;1338;48.176;11.792;2023-02-18T15:24:42;2.33;;;2.13;;
2656;SDS011;1338;48.176;11.792;2023-02-18T15:27:11;2.80;;;2.10;;
2656;SDS011;1338;48.176;11.792;2023-02-18T15:29:42;2.13;;;2.00;;
2656;SDS011;1338;48.176;11.792;2023-02-18T15:32:14;2.20;;;2.00;;
2656;SDS011;1338;48.176;11.792;2023-02-18T15:34:44;3.87;;;1.93;;
2656;SDS011;1338;48.176;11.792;2023-02-18T15:37:14;2.47;;;2.27;;
2656;SDS011;1338;48.176;11.792;2023-02-18T15:39:42;4.00;;;2.10;;
2656;SDS011;1338;48.176;11.792;2023-02-18T15:42:13;2.37;;;2.13;;
2656;SDS011;1338;48.176;11.792;2023-02-18T15:44:49;3.43;;;2.03;;
2656;SDS011;1338;48.176;11.792;2023-02-18T15:47:19;2.30;;;2.10;;
2656;SDS011;1338;48.176;11.792;2023-02-18T15:49:49;2.10;;;1.90;;
2656;SDS011;1338;48.176;11.792;2023-02-18T15:52:25;1.83;;;1.73;;
2656;SDS011;1338;48.176;11.792;2023-02-18T15:54:56;2.23;;;1.87;;